Airfield :







YOU CAN JOIN US ON...

 
LOGIN :

Register | Disclaimer

   EN    FR    IT 

 









Legend :    VFR   Marginal VFR   IFR   Intensive IFR   Very Intensive IFR
Visi :
Ceiling :
>= 8 km
>= 3000ft
5 to 8 km
1000 to 3000 ft
1500m to 5 km
500 to 1000 ft
800 to 1500m
200 to 500 ft
< 800m
< 200 ft
Symbols :   Thunderstorms  Fog  Heavy snow  Heavy precipitations  Wind > 20 kt






- Airport Elevation : 285 ft
- IATA code : ALB


KALB - Albany International

CURRENT METAR :
  • 100151Z 14004KT 10SM FEW090 FEW250 29/21 A2996 RMK AO2 SLP141 T02940206

EXPIRED METARs :
  • 100051Z 15005KT 10SM FEW050 FEW090 SCT250 30/20 A2995 RMK AO2 SLP138 TCU DSNT SE T03000200
  • 092351Z 18006KT 10SM FEW045 FEW090 SCT250 32/19 A2993 RMK AO2 SLP134 CB DSNT SE MOV NE T03170194 10344 20317 55001

TAF KALB
Valid from the 10 at 00:00 until the 11 at 00:00 UTC


092330Z 1000/1024 18007KT P6SM FEW035 SCT250
FM100500 00000KT 6SM BR SCT005
TEMPO 1006/1010 1SM BR BKN005
FM101000 15005KT 6SM BR BKN005
FM101400 14006KT P6SM SCT020 SCT040 BKN200
FM101800 15009KT P6SM SCT035 SCT050 BKN080
PROB30 1018/1024 4SM -SHRA BKN025
KZBW FIR / North America



MET'MAP, your aeronautical weather chart ! - Copyright ORBIFLY December 2007 - Disclaimer

ORBIFLY MET'MAP TEAM :

Programming & Development : Alexandra Zaïnal
Concept & original design : Baudouin d'Aumeries
Assistance for programming : Marc-Olivier Méhu
Technical & hardware support : Manuel Goepfert

Contact : metmap@orbifly.com




SOURCES & CREDITS :

   NOAA